DW7525 Weather Reports


Display with metric or nautical units.
time (UTC)temp
F
wind
direction
speed
MPH
gust
MPH
rain 1hr
in
rain 24hr
in
rain mn
in
humidity
%
barometer
mb
20200706114339 58 150 2.0 4.0 0.00 0.00 0.00 64 1021.6
20200706113835 58 150 2.0 3.0 0.00 0.00 0.00 65 1021.6
20200706113332 58 150 2.0 6.0 0.00 0.00 0.00 66 1021.7
20200706112829 59 150 4.0 6.0 0.00 0.00 0.00 64 1021.3
20200706112325 60 257 1.0 5.0 0.00 0.00 0.00 61 1021.5
20200706111822 62 236 2.0 5.0 0.00 0.00 0.00 59 1021.7
20200706111323 62 194 1.0 5.0 0.00 0.00 0.00 55 1021.2
20200706110844 62 192 1.0 6.0 0.00 0.00 0.00 53 1020.8
20200706110357 63 193 4.0 6.0 0.00 0.00 0.00 53 1020.7
20200706105837 63 199 3.0 5.0 0.00 0.00 0.00 53 1020.7
20200706105334 64 168 3.0 8.0 0.00 0.00 0.00 52 1020.7
20200706104852 64 167 4.0 9.0 0.00 0.00 0.00 51 1020.7
20200706104348 64 153 6.0 10.0 0.00 0.00 0.00 51 1020.6
20200706103844 64 168 7.0 10.0 0.00 0.00 0.00 52 1020.6
20200706103324 63 167 7.0 12.0 0.00 0.00 0.00 53 1020.5
20200706102824 63 169 8.0 12.0 0.00 0.00 0.00 54 1020.5
20200706102322 62 163 7.0 11.0 0.00 0.00 0.00 55 1020.5
20200706101858 61 159 5.0 9.0 0.00 0.00 0.00 56 1020.5
20200706101336 62 193 1.0 6.0 0.00 0.00 0.00 57 1020.5
20200706100852 62 193 4.0 8.0 0.00 0.00 0.00 56 1020.5
20200706100348 62 163 3.0 8.0 0.00 0.00 0.00 57 1020.5
20200706095922 61 161 5.0 8.0 0.00 0.00 0.00 57 1020.5
20200706095840 61 161 5.0 8.0 0.00 0.00 0.00 57 1020.5
20200706095336 60 166 5.0 8.0 0.00 0.00 0.00 60 1020.5
20200706094833 59 188 3.0 6.0 0.00 0.00 0.00 61 1020.4
20200706094331 58 167 3.0 5.0 0.00 0.00 0.00 63 1020.4
20200706093829 57 165 2.0 5.0 0.00 0.00 0.00 65 1020.4
20200706093329 58 202 0.0 0.0 0.00 0.00 0.00 66 1020.5
20200706092846 58 202 0.0 0.0 0.00 0.00 0.00 66 1020.4
20200706092322 58 202 0.0 0.0 0.00 0.00 0.00 65 1020.5
20200706091837 59 202 0.0 0.0 0.00 0.00 0.00 65 1020.5
20200706091334 59 202 0.0 0.0 0.00 0.00 0.00 64 1020.5
20200706090853 59 202 0.0 0.0 0.00 0.00 0.00 64 1020.5
20200706090332 60 202 0.0 1.0 0.00 0.00 0.00 63 1020.5
20200706085847 60 202 0.0 4.0 0.00 0.00 0.00 63 1020.5
20200706085323 59 202 1.0 5.0 0.00 0.00 0.00 61 1020.5
20200706084822 59 200 2.0 5.0 0.00 0.00 0.00 63 1020.5
20200706084327 58 202 3.0 5.0 0.00 0.00 0.00 66 1020.6
20200706083840 58 261 1.0 3.0 0.00 0.00 0.00 67 1020.7
20200706083358 58 261 0.0 0.0 0.00 0.00 0.00 69 1020.8
20200706082832 58 261 0.0 2.0 0.00 0.00 0.00 67 1020.9
20200706082328 58 261 0.0 2.0 0.00 0.00 0.00 67 1020.9
20200706081826 58 261 0.0 2.0 0.00 0.00 0.00 67 1021.0
20200706081400 58 261 1.0 2.0 0.00 0.00 0.00 67 1021.1
20200706080855 59 261 0.0 1.0 0.00 0.00 0.00 66 1021.1
20200706080328 59 261 0.0 1.0 0.00 0.00 0.00 65 1021.1
20200706075824 60 261 0.0 1.0 0.00 0.00 0.00 63 1021.1
20200706075343 61 261 0.0 1.0 0.00 0.00 0.00 61 1021.1
20200706074828 62 261 0.0 0.0 0.00 0.00 0.00 61 1021.2
20200706074324 62 261 0.0 4.0 0.00 0.00 0.00 58 1021.3
20200706073822 63 261 2.0 5.0 0.00 0.00 0.00 58 1021.3
20200706073402 63 193 1.0 6.0 0.00 0.00 0.00 57 1021.3
20200706072857 63 193 4.0 6.0 0.00 0.00 0.00 57 1021.4
20200706072332 63 165 4.0 6.0 0.00 0.00 0.00 58 1021.4
20200706071850 62 202 4.0 7.0 0.00 0.00 0.00 58 1021.5
20200706071345 62 166 4.0 7.0 0.00 0.00 0.00 58 1021.7
20200706070821 62 182 1.0 4.0 0.00 0.00 0.00 58 1021.8
20200706070340 62 182 1.0 4.0 0.00 0.00 0.00 58 1021.8
20200706065837 61 181 3.0 4.0 0.00 0.00 0.00 58 1021.8
20200706065333 61 165 3.0 7.0 0.00 0.00 0.00 59 1021.8
20200706064831 61 202 3.0 7.0 0.00 0.00 0.00 58 1021.7
20200706064327 60 173 3.0 6.0 0.00 0.00 0.00 60 1021.9
20200706063828 60 171 0.0 3.0 0.00 0.00 0.00 61 1021.9
20200706063347 60 171 1.0 4.0 0.00 0.00 0.00 61 1021.9
20200706062902 60 171 3.0 5.0 0.00 0.00 0.00 62 1022.0
20200706062337 59 171 3.0 5.0 0.00 0.00 0.00 63 1022.0
20200706061917 59 169 3.0 4.0 0.00 0.00 0.00 63 1022.2
20200706061831 59 169 3.0 4.0 0.00 0.00 0.00 63 1022.2
20200706061328 59 169 3.0 4.0 0.00 0.00 0.00 62 1022.3
20200706060822 60 168 2.0 3.0 0.00 0.00 0.00 63 1022.4
20200706060400 60 168 2.0 2.0 0.00 0.00 0.00 61 1022.5
20200706055835 60 168 0.0 1.0 0.00 0.00 0.00 60 1022.5
20200706055359 61 168 0.0 1.0 0.00 0.00 0.00 60 1022.3
20200706054830 61 168 0.0 3.0 0.00 0.00 0.00 58 1022.3
20200706054327 60 168 0.0 3.0 0.00 0.00 0.00 58 1022.3
20200706053903 61 168 0.0 2.0 0.00 0.00 0.00 59 1022.3
20200706053321 61 168 0.0 0.0 0.00 0.00 0.00 58 1022.3
20200706052837 60 168 0.0 0.0 0.00 0.00 0.00 57 1022.2
20200706052336 60 168 0.0 1.0 0.00 0.00 0.00 57 1022.1
20200706051830 60 168 0.0 3.0 0.00 0.00 0.00 59 1022.1
20200706051331 61 168 1.0 4.0 0.00 0.00 0.00 59 1022.2
20200706050825 61 168 1.0 4.0 0.00 0.00 0.00 58 1022.0
20200706050338 61 168 0.0 2.0 0.00 0.00 0.00 58 1022.0
20200706045837 61 168 1.0 5.0 0.00 0.00 0.00 57 1022.0
20200706045332 61 168 1.0 5.0 0.00 0.00 0.00 59 1022.0
20200706044833 61 137 3.0 4.0 0.00 0.00 0.00 60 1021.9
20200706044332 61 206 0.0 1.0 0.00 0.00 0.00 58 1022.0
20200706043827 62 206 0.0 0.0 0.00 0.00 0.00 58 1022.0
20200706043323 62 206 0.0 3.0 0.00 0.00 0.00 56 1022.0
20200706042821 62 206 0.0 4.0 0.00 0.00 0.00 54 1022.0
20200706042342 61 206 3.0 4.0 0.00 0.00 0.00 55 1022.0
20200706041901 61 206 2.0 4.0 0.00 0.00 0.00 56 1022.0
20200706041415 62 206 2.0 4.0 0.00 0.00 0.00 57 1022.0
20200706041332 62 206 2.0 4.0 0.00 0.00 0.00 57 1022.0
20200706040829 62 206 0.0 3.0 0.00 0.00 0.00 56 1022.0
20200706040330 62 206 1.0 3.0 0.00 0.00 0.00 55 1022.0
20200706035825 63 206 0.0 1.0 0.00 0.00 0.00 56 1021.9
20200706035344 63 206 0.0 0.0 0.00 0.00 0.00 56 1021.9
20200706034841 64 206 0.0 2.0 0.00 0.00 0.00 55 1021.8
20200706034356 64 206 0.0 4.0 0.00 0.00 0.00 52 1021.8
20200706033851 64 206 2.0 4.0 0.00 0.00 0.00 52 1021.8
20200706033326 64 206 2.0 4.0 0.00 0.00 0.00 51 1021.7
20200706032823 65 207 0.0 1.0 0.00 0.00 0.00 50 1021.7
20200706032323 65 207 0.0 7.0 0.00 0.00 0.00 50 1021.7
20200706031839 65 207 1.0 7.0 0.00 0.00 0.00 49 1021.6
20200706031336 65 196 3.0 8.0 0.00 0.00 0.00 50 1021.5
20200706030857 66 169 4.0 10.0 0.00 0.00 0.00 50 1021.5
20200706030334 66 159 7.0 12.0 0.00 0.00 0.00 49 1021.4
20200706025831 66 157 8.0 14.0 0.00 0.00 0.00 49 1021.4
20200706025348 66 163 9.0 14.0 0.00 0.00 0.00 50 1021.3
20200706024826 65 179 8.0 16.0 0.00 0.00 0.00 51 1021.3
20200706024322 65 167 9.0 22.0 0.00 0.00 0.00 52 1021.3
20200706023903 65 140 11.0 22.0 0.00 0.00 0.00 53 1021.5
20200706023401 65 163 9.0 16.0 0.00 0.00 0.00 54 1021.4
20200706022838 65 167 9.0 16.0 0.00 0.00 0.00 55 1021.5
20200706022334 65 167 10.0 16.0 0.00 0.00 0.00 55 1021.5
20200706021851 65 219 9.0 20.0 0.00 0.00 0.00 56 1021.7
20200706021347 65 170 9.0 20.0 0.00 0.00 0.00 56 1021.7
20200706020826 65 180 10.0 21.0 0.00 0.00 0.00 56 1021.8
20200706020345 65 210 11.0 21.0 0.00 0.00 0.00 55 1021.8
20200706015901 66 178 12.0 20.0 0.00 0.00 0.00 56 1021.8
20200706015336 66 158 10.0 18.0 0.00 0.00 0.00 57 1021.8
20200706014833 66 157 13.0 18.0 0.00 0.00 0.00 56 1021.8
20200706014330 67 163 11.0 18.0 0.00 0.00 0.00 55 1021.7
20200706013825 67 184 11.0 19.0 0.00 0.00 0.00 54 1021.9
20200706013402 67 159 10.0 19.0 0.00 0.00 0.00 54 1021.8
20200706012842 67 182 10.0 17.0 0.00 0.00 0.00 55 1021.9
20200706012339 68 154 9.0 22.0 0.00 0.00 0.00 54 1021.9
20200706011838 68 150 9.0 22.0 0.00 0.00 0.00 53 1021.8
20200706011413 68 159 11.0 20.0 0.00 0.00 0.00 53 1021.8
20200706010846 68 157 8.0 13.0 0.00 0.00 0.00 54 1021.7
20200706010325 69 202 7.0 15.0 0.00 0.00 0.00 53 1021.7
20200706005821 69 171 8.0 15.0 0.00 0.00 0.00 52 1021.6
20200706005340 68 140 8.0 16.0 0.00 0.00 0.00 53 1021.5
20200706004834 68 150 11.0 17.0 0.00 0.00 0.00 52 1021.4
20200706004356 67 175 10.0 17.0 0.00 0.00 0.00 54 1021.3
20200706003829 67 161 11.0 22.0 0.00 0.00 0.00 55 1021.2
20200706003334 66 175 15.0 22.0 0.00 0.00 0.00 57 1021.4
20200706002833 65 173 14.0 21.0 0.00 0.00 0.00 60 1021.3
20200706002331 65 151 12.0 18.0 0.00 0.00 0.00 64 1021.7
20200706001825 66 159 8.0 17.0 0.00 0.00 0.00 62 1021.6
20200706001325 67 144 11.0 17.0 0.00 0.00 0.00 58 1021.5
20200706000824 67 196 10.0 18.0 0.00 0.00 0.00 57 1021.3
20200706000326 67 151 12.0 21.0 0.00 0.00 0.00 58 1021.4
20200705235843 67 171 14.0 21.0 0.00 0.00 0.00 57 1021.3
20200705235321 68 173 12.0 20.0 0.00 0.00 0.00 56 1021.7
20200705234820 68 184 10.0 15.0 0.00 0.00 0.00 55 1021.6
20200705234403 68 196 8.0 13.0 0.00 0.00 0.00 53 1021.4
20200705233900 68 207 7.0 13.0 0.00 0.00 0.00 55 1021.3
20200705233357 68 217 7.0 14.0 0.00 0.00 0.00 56 1021.3
20200705232853 68 180 6.0 14.0 0.00 0.00 0.00 55 1021.1
20200705232327 70 153 7.0 11.0 0.00 0.00 0.00 55 1021.1
20200705231824 71 177 1.0 9.0 0.00 0.00 0.00 52 1021.1
20200705231324 71 264 3.0 16.0 0.00 0.00 0.00 49 1020.7
20200705230844 73 315 3.0 20.0 0.00 0.00 0.00 46 1020.6
20200705230419 75 254 4.0 20.0 0.00 0.00 0.00 44 1020.6
20200705225854 77 277 6.0 23.0 0.00 0.00 0.00 36 1020.5
20200705225330 80 268 6.0 23.0 0.00 0.00 0.00 33 1020.7
20200705224846 81 263 3.0 7.0 0.00 0.00 0.00 34 1020.7
20200705224324 81 175 1.0 4.0 0.00 0.00 0.00 33 1020.6
20200705223840 81 148 1.0 4.0 0.00 0.00 0.00 38 1020.4
20200705223338 81 148 1.0 4.0 0.00 0.00 0.00 32 1020.3
20200705222837 81 148 0.0 3.0 0.00 0.00 0.00 34 1020.3
20200705222354 81 149 0.0 4.0 0.00 0.00 0.00 34 1020.3
20200705221834 81 36 2.0 6.0 0.00 0.00 0.00 33 1020.3
20200705221330 82 59 2.0 6.0 0.00 0.00 0.00 31 1020.3
20200705220829 82 71 1.0 6.0 0.00 0.00 0.00 32 1020.4
20200705220330 82 39 1.0 6.0 0.00 0.00 0.00 29 1020.4
20200705215827 82 5 0.0 5.0 0.00 0.00 0.00 32 1020.4
20200705215323 82 56 1.0 9.0 0.00 0.00 0.00 30 1020.4
20200705214839 83 20 4.0 9.0 0.00 0.00 0.00 32 1020.5
20200705214337 83 50 3.0 7.0 0.00 0.00 0.00 32 1020.5
20200705213837 84 87 4.0 8.0 0.00 0.00 0.00 29 1020.5
20200705213353 83 140 5.0 8.0 0.00 0.00 0.00 33 1020.4
20200705212832 83 165 4.0 6.0 0.00 0.00 0.00 34 1020.3
20200705212408 83 45 3.0 7.0 0.00 0.00 0.00 30 1020.3
20200705211904 83 128 3.0 7.0 0.00 0.00 0.00 30 1020.4
20200705211319 84 179 3.0 7.0 0.00 0.00 0.00 30 1020.5
20200705210858 84 43 4.0 9.0 0.00 0.00 0.00 33 1020.6
20200705210334 84 97 6.0 9.0 0.00 0.00 0.00 33 1020.5
20200705205910 84 173 0.0 8.0 0.00 0.00 0.00 31 1020.6
20200705205328 84 174 3.0 12.0 0.00 0.00 0.00 30 1020.5
20200705204907 84 165 3.0 12.0 0.00 0.00 0.00 28 1020.7
20200705204824 84 165 3.0 12.0 0.00 0.00 0.00 28 1020.7
20200705204323 84 38 3.0 11.0 0.00 0.00 0.00 32 1020.7
20200705203821 84 103 5.0 11.0 0.00 0.00 0.00 30 1020.7
20200705203338 84 18 5.0 10.0 0.00 0.00 0.00 31 1020.9
20200705202854 85 65 2.0 5.0 0.00 0.00 0.00 29 1020.8
20200705202332 84 150 2.0 12.0 0.00 0.00 0.00 30 1020.9
20200705201828 84 22 4.0 12.0 0.00 0.00 0.00 32 1020.9
20200705201327 84 57 3.0 12.0 0.00 0.00 0.00 31 1021.0
20200705200846 84 61 7.0 12.0 0.00 0.00 0.00 30 1021.1
20200705200339 84 104 3.0 7.0 0.00 0.00 0.00 31 1021.0
20200705195857 84 155 2.0 9.0 0.00 0.00 0.00 31 1021.0
20200705195333 84 159 3.0 9.0 0.00 0.00 0.00 31 1021.0
20200705194829 84 91 3.0 9.0 0.00 0.00 0.00 31 1021.2
20200705194346 84 155 5.0 9.0 0.00 0.00 0.00 30 1021.2
20200705193825 84 59 5.0 9.0 0.00 0.00 0.00 35 1021.3
20200705193325 84 47 3.0 9.0 0.00 0.00 0.00 34 1021.4
20200705192823 84 26 5.0 9.0 0.00 0.00 0.00 34 1021.5
20200705192359 84 164 3.0 7.0 0.00 0.00 0.00 35 1021.5
20200705191858 83 93 2.0 9.0 0.00 0.00 0.00 33 1021.6
20200705191353 83 24 4.0 9.0 0.00 0.00 0.00 31 1021.7
20200705190829 83 125 1.0 6.0 0.00 0.00 0.00 31 1021.6
20200705190326 84 36 3.0 7.0 0.00 0.00 0.00 32 1021.8
20200705185846 83 167 2.0 7.0 0.00 0.00 0.00 31 1021.8
20200705185325 83 93 4.0 13.0 0.00 0.00 0.00 30 1021.8
20200705184844 83 50 6.0 13.0 0.00 0.00 0.00 32 1021.7
20200705184324 83 175 3.0 6.0 0.00 0.00 0.00 30 1021.7
20200705183843 83 40 3.0 6.0 0.00 0.00 0.00 32 1021.7
20200705183323 83 143 3.0 6.0 0.00 0.00 0.00 32 1021.8
20200705182821 83 73 3.0 7.0 0.00 0.00 0.00 31 1021.9
20200705182337 83 55 2.0 9.0 0.00 0.00 0.00 29 1021.9
20200705181834 82 67 4.0 9.0 0.00 0.00 0.00 31 1021.9
20200705181331 83 70 3.0 8.0 0.00 0.00 0.00 32 1022.0
20200705180852 82 69 2.0 5.0 0.00 0.00 0.00 30 1022.0
20200705180346 82 85 2.0 7.0 0.00 0.00 0.00 31 1022.1
20200705175824 82 167 2.0 7.0 0.00 0.00 0.00 29 1022.1
20200705175341 82 167 2.0 8.0 0.00 0.00 0.00 35 1022.3
20200705174858 82 175 3.0 8.0 0.00 0.00 0.00 35 1022.2
20200705174354 81 165 3.0 6.0 0.00 0.00 0.00 34 1022.3
20200705173829 81 34 2.0 8.0 0.00 0.00 0.00 35 1022.3
20200705173325 81 35 5.0 8.0 0.00 0.00 0.00 35 1022.4
20200705172823 81 94 1.0 6.0 0.00 0.00 0.00 35 1022.3
20200705172338 80 70 2.0 8.0 0.00 0.00 0.00 37 1022.4
20200705171855 80 52 4.0 9.0 0.00 0.00 0.00 36 1022.6
20200705171333 80 21 3.0 9.0 0.00 0.00 0.00 34 1022.5
20200705170831 80 83 3.0 10.0 0.00 0.00 0.00 37 1022.5
20200705170328 80 105 5.0 10.0 0.00 0.00 0.00 37 1022.6
20200705165846 79 56 4.0 7.0 0.00 0.00 0.00 37 1022.6
20200705165345 79 176 3.0 9.0 0.00 0.00 0.00 39 1022.6
20200705164844 79 138 4.0 9.0 0.00 0.00 0.00 40 1022.6
20200705164321 78 143 5.0 8.0 0.00 0.00 0.00 40 1022.5
20200705163838 78 49 3.0 8.0 0.00 0.00 0.00 40 1022.5
20200705163335 78 149 5.0 8.0 0.00 0.00 0.00 41 1022.4
20200705162856 78 44 3.0 7.0 0.00 0.00 0.00 41 1022.4
20200705162333 78 101 4.0 7.0 0.00 0.00 0.00 41 1022.4
20200705161833 78 138 5.0 7.0 0.00 0.00 0.00 39 1022.5
20200705161329 78 123 1.0 6.0 0.00 0.00 0.00 38 1022.5
20200705160906 77 91 2.0 6.0 0.00 0.00 0.00 41 1022.4
20200705160324 77 83 2.0 5.0 0.00 0.00 0.00 41 1022.6
20200705155824 77 76 2.0 6.0 0.00 0.00 0.00 39 1022.5
20200705155323 76 140 2.0 6.0 0.00 0.00 0.00 40 1022.5
20200705154859 76 46 2.0 6.0 0.00 0.00 0.00 42 1022.6
20200705154336 76 59 2.0 5.0 0.00 0.00 0.00 43 1022.6
20200705153834 76 46 4.0 6.0 0.00 0.00 0.00 42 1022.6
20200705153331 76 42 2.0 6.0 0.00 0.00 0.00 46 1022.6
20200705152831 75 38 3.0 5.0 0.00 0.00 0.00 47 1022.7
20200705152330 75 40 2.0 4.0 0.00 0.00 0.00 47 1022.8
20200705151828 75 288 1.0 5.0 0.00 0.00 0.00 48 1022.8
20200705151324 75 34 2.0 5.0 0.00 0.00 0.00 49 1022.8
20200705150832 74 69 1.0 4.0 0.00 0.00 0.00 52 1022.9
20200705150336 74 69 1.0 4.0 0.00 0.00 0.00 49 1023.0
20200705145833 74 103 1.0 3.0 0.00 0.00 0.00 49 1023.0
20200705145328 73 101 1.0 3.0 0.00 0.00 0.00 51 1023.0
20200705144845 72 105 0.0 1.0 0.00 0.00 0.00 52 1023.1
20200705144340 72 105 0.0 3.0 0.00 0.00 0.00 54 1023.1
20200705143837 71 94 1.0 4.0 0.00 0.00 0.00 54 1023.1
20200705143334 71 61 1.0 4.0 0.00 0.00 0.00 54 1023.1
20200705142851 71 74 2.0 4.0 0.00 0.00 0.00 54 1023.1
20200705142328 70 105 2.0 4.0 0.00 0.00 0.00 55 1023.1
20200705141826 70 157 1.0 2.0 0.00 0.00 0.00 57 1023.2
20200705141402 71 157 1.0 3.0 0.00 0.00 0.00 54 1023.2
20200705140921 71 157 1.0 3.0 0.00 0.00 0.00 54 1023.2
20200705140334 70 188 0.0 1.0 0.00 0.00 0.00 50 1023.2
20200705135831 69 192 0.0 3.0 0.00 0.00 0.00 50 1023.1
20200705135330 69 192 1.0 3.0 0.00 0.00 0.00 54 1023.2
20200705134851 69 250 0.0 3.0 0.00 0.00 0.00 53 1023.0
20200705134408 68 250 0.0 3.0 0.00 0.00 0.00 55 1023.0
20200705134326 68 250 0.0 3.0 0.00 0.00 0.00 55 1023.0
20200705133831 68 250 1.0 3.0 0.00 0.00 0.00 57 1023.0
20200705133319 68 250 0.0 0.0 0.00 0.00 0.00 56 1023.0
20200705132839 68 250 0.0 0.0 0.00 0.00 0.00 61 1023.0
20200705132343 67 250 0.0 0.0 0.00 0.00 0.00 60 1023.0
20200705131831 66 250 0.0 0.0 0.00 0.00 0.00 59 1023.1
20200705131349 66 250 0.0 0.0 0.00 0.00 0.00 57 1023.0
20200705130844 66 250 0.0 2.0 0.00 0.00 0.00 59 1023.1
20200705130323 66 250 0.0 2.0 0.00 0.00 0.00 59 1022.9
20200705125821 66 250 0.0 0.0 0.00 0.00 0.00 64 1023.0
20200705125357 64 250 0.0 0.0 0.00 0.00 0.00 63 1022.8
20200705124833 63 250 0.0 0.0 0.00 0.00 0.00 70 1022.8
20200705124330 61 250 0.0 0.0 0.00 0.00 0.00 74 1022.7
20200705123829 60 202 0.0 0.0 0.00 0.00 0.00 76 1022.6
20200705123339 58 202 0.0 0.0 0.00 0.00 0.00 71 1022.5
20200705122838 58 202 0.0 0.0 0.00 0.00 0.00 72 1022.4
20200705122353 58 202 0.0 0.0 0.00 0.00 0.00 76 1022.3
20200705121849 57 202 0.0 0.0 0.00 0.00 0.00 77 1022.3
20200705121405 56 202 0.0 0.0 0.00 0.00 0.00 75 1022.3
20200705120823 56 202 0.0 0.0 0.00 0.00 0.00 75 1022.3
20200705120343 56 202 0.0 0.0 0.00 0.00 0.00 74 1022.3
20200705115821 56 202 0.0 0.0 0.00 0.00 0.00 74 1022.2
20200705115400 56 202 0.0 0.0 0.00 0.00 0.00 73 1022.2
20200705114915 57 202 0.0 3.0 0.00 0.00 0.00 72 1022.2
20200705114833 57 202 0.0 3.0 0.00 0.00 0.00 72 1022.2